Time;durP1;ratioP1;P1;durP2;ratioP2;P2;SDS_P1;SDS_P2;PMS_P1;PMS_P2;Temp;Humidity;BMP_temperature;BMP_pressure;BME280_temperature;BME280_humidity;BME280_pressure;Samples;Min_cycle;Max_cycle;Signal;HPM_P1;HPM_P2
2023/11/30 00:01:33;;;;;;;30.50;21.60;;;;;;;-4.85;100.00;98424.81;5084712;28;20191;-82
2023/11/30 00:04:00;;;;;;;35.40;22.50;;;;;;;-4.83;100.00;98423.69;5094007;28;20196;-80
2023/11/30 00:06:33;;;;;;;37.23;23.70;;;;;;;-4.89;100.00;98427.72;5094833;28;20317;-83
2023/11/30 00:08:59;;;;;;;34.00;21.87;;;;;;;-4.93;100.00;98430.78;5087161;28;20197;-82
2023/11/30 00:11:27;;;;;;;32.63;21.17;;;;;;;-4.93;100.00;98428.97;5095726;28;20204;-78
2023/11/30 00:13:56;;;;;;;30.70;20.60;;;;;;;-4.95;100.00;98427.50;5114768;28;20227;-79
2023/11/30 00:16:24;;;;;;;32.27;20.90;;;;;;;-5.01;100.00;98420.28;5097224;28;20290;-79
2023/11/30 00:18:53;;;;;;;32.37;20.37;;;;;;;-4.99;100.00;98426.16;5090219;28;20234;-79
2023/11/30 00:21:19;;;;;;;30.73;20.60;;;;;;;-5.03;100.00;98424.81;5105355;28;20203;-80
2023/11/30 00:23:48;;;;;;;42.80;23.27;;;;;;;-5.11;100.00;98419.53;5105470;28;20222;-82
2023/11/30 00:26:22;;;;;;;44.73;25.57;;;;;;;-5.14;100.00;98425.06;5090186;28;20198;-79
2023/11/30 00:28:59;;;;;;;44.47;24.23;;;;;;;-5.19;100.00;98420.28;5114020;28;20194;-79
2023/11/30 00:31:26;;;;;;;45.37;23.53;;;;;;;-5.18;100.00;98416.72;5112740;28;20534;-78
2023/11/30 00:33:55;;;;;;;39.10;23.00;;;;;;;-5.24;100.00;98413.88;5110478;28;20211;-79
2023/11/30 00:36:24;;;;;;;36.90;21.23;;;;;;;-5.32;100.00;98418.03;5096241;28;20242;-79
2023/11/30 00:38:51;;;;;;;32.67;20.17;;;;;;;-5.27;100.00;98411.56;5102548;28;20720;-81
2023/11/30 00:41:25;;;;;;;31.83;19.07;;;;;;;-5.26;100.00;98416.63;5105232;28;20199;-79
2023/11/30 00:43:51;;;;;;;35.53;20.47;;;;;;;-5.25;100.00;98409.59;5113629;28;20188;-80
2023/11/30 00:46:20;;;;;;;51.07;24.20;;;;;;;-5.25;100.00;98405.22;5095046;28;20196;-79
2023/11/30 00:48:47;;;;;;;63.50;28.03;;;;;;;-5.23;100.00;98412.91;5093454;28;20214;-78
2023/11/30 00:51:14;;;;;;;70.60;30.83;;;;;;;-5.25;100.00;98418.25;5111275;28;20227;-79
2023/11/30 00:53:42;;;;;;;57.53;27.87;;;;;;;-5.28;100.00;98425.59;5096349;28;20215;-79
2023/11/30 00:56:13;;;;;;;43.50;23.20;;;;;;;-5.27;100.00;98428.03;5085538;28;20199;-82
2023/11/30 00:58:43;;;;;;;38.40;21.73;;;;;;;-5.29;100.00;98435.19;5094453;28;20661;-79
2023/11/30 01:01:10;;;;;;;36.87;22.23;;;;;;;-5.29;100.00;98439.59;5096329;28;20691;-81
2023/11/30 01:03:39;;;;;;;73.27;41.07;;;;;;;-5.35;100.00;98434.00;5080478;28;20188;-79
2023/11/30 01:06:07;;;;;;;49.00;28.37;;;;;;;-5.38;100.00;98431.69;5099863;28;20318;-77
2023/11/30 01:08:34;;;;;;;37.73;24.63;;;;;;;-5.36;100.00;98434.13;5100503;28;20201;-79
2023/11/30 01:11:04;;;;;;;40.47;25.93;;;;;;;-5.36;100.00;98441.97;5076748;28;20258;-78
2023/11/30 01:13:37;;;;;;;42.33;25.43;;;;;;;-5.38;100.00;98428.25;5100145;28;20208;-79
2023/11/30 01:16:07;;;;;;;38.07;24.17;;;;;;;-5.39;100.00;98418.78;5094886;28;20265;-78
2023/11/30 01:18:33;;;;;;;31.17;21.30;;;;;;;-5.39;100.00;98424.00;5098281;28;20271;-80
2023/11/30 01:21:00;;;;;;;29.77;19.67;;;;;;;-5.40;100.00;98424.97;5096934;28;20184;-81
2023/11/30 01:23:27;;;;;;;29.57;19.23;;;;;;;-5.39;100.00;98422.22;5091393;28;20683;-79
2023/11/30 01:25:54;;;;;;;27.30;18.70;;;;;;;-5.40;100.00;98425.78;5099947;28;20631;-79
2023/11/30 01:28:21;;;;;;;26.67;18.43;;;;;;;-5.41;100.00;98431.16;5102666;28;20192;-79
2023/11/30 01:30:49;;;;;;;27.43;17.67;;;;;;;-5.43;100.00;98420.06;5094592;28;20194;-80
2023/11/30 01:33:15;;;;;;;25.40;17.70;;;;;;;-5.47;100.00;98419.53;5100523;28;20248;-79
2023/11/30 01:35:49;;;;;;;22.80;16.37;;;;;;;-5.47;100.00;98416.91;5108143;28;20210;-78
2023/11/30 01:38:16;;;;;;;27.40;18.27;;;;;;;-5.42;100.00;98412.09;5094359;28;20197;-78
2023/11/30 01:40:43;;;;;;;28.97;18.60;;;;;;;-5.35;100.00;98394.00;5091672;28;20305;-80
2023/11/30 01:43:10;;;;;;;28.73;19.00;;;;;;;-5.28;100.00;98391.63;5096522;28;20203;-79
2023/11/30 01:45:38;;;;;;;23.80;17.33;;;;;;;-5.18;100.00;98387.16;5097621;28;20196;-78
2023/11/30 01:48:07;;;;;;;25.30;17.10;;;;;;;-5.13;100.00;98388.31;5099694;28;20569;-79
2023/11/30 01:50:35;;;;;;;25.37;17.00;;;;;;;-5.06;100.00;98383.34;5093913;28;20734;-78
2023/11/30 01:53:02;;;;;;;25.47;17.40;;;;;;;-4.99;100.00;98386.97;5095264;28;20249;-80
2023/11/30 01:55:29;;;;;;;24.90;16.73;;;;;;;-4.90;100.00;98386.88;5099465;28;20222;-78
2023/11/30 01:58:00;;;;;;;27.17;17.77;;;;;;;-4.83;100.00;98387.09;5092720;28;20187;-79
2023/11/30 02:00:28;;;;;;;24.17;16.37;;;;;;;-4.73;100.00;98384.38;5098691;28;20207;-78
2023/11/30 02:02:57;;;;;;;21.93;16.57;;;;;;;-4.68;100.00;98379.53;5095682;28;20234;-79
2023/11/30 02:05:26;;;;;;;26.43;17.70;;;;;;;-4.61;100.00;98370.91;5095485;28;20211;-81
2023/11/30 02:07:54;;;;;;;23.80;17.03;;;;;;;-4.54;100.00;98361.47;5094980;28;20669;-79
2023/11/30 02:10:22;;;;;;;22.10;16.50;;;;;;;-4.46;100.00;98368.53;5093678;28;20203;-78
2023/11/30 02:12:52;;;;;;;21.03;16.33;;;;;;;-4.39;100.00;98371.38;5094873;28;20211;-79
2023/11/30 02:15:23;;;;;;;23.50;16.27;;;;;;;-4.31;100.00;98363.56;5094643;28;20195;-78
2023/11/30 02:17:53;;;;;;;22.80;16.40;;;;;;;-4.26;100.00;98356.88;5100996;28;20191;-79
2023/11/30 02:20:21;;;;;;;24.00;16.63;;;;;;;-4.21;100.00;98364.25;5087851;28;20219;-79
2023/11/30 02:22:47;;;;;;;21.53;15.67;;;;;;;-4.17;100.00;98353.31;5103598;28;20227;-80
2023/11/30 02:25:14;;;;;;;21.83;16.13;;;;;;;-4.13;100.00;98353.81;5096564;28;20192;-79
2023/11/30 02:27:44;;;;;;;20.57;15.37;;;;;;;-4.10;100.00;98349.06;5095331;28;20199;-80
2023/11/30 02:30:12;;;;;;;22.77;15.10;;;;;;;-4.05;100.00;98351.22;5101651;28;20193;-79
2023/11/30 02:32:38;;;;;;;23.60;16.20;;;;;;;-4.01;100.00;98353.38;5082833;28;20220;-80
2023/11/30 02:35:05;;;;;;;21.53;15.37;;;;;;;-3.97;100.00;98351.28;5085474;28;20203;-79
2023/11/30 02:37:32;;;;;;;18.80;14.67;;;;;;;-3.92;100.00;98343.75;5094417;28;20257;-79
2023/11/30 02:39:59;;;;;;;19.53;14.37;;;;;;;-3.88;100.00;98352.09;5103744;28;20543;-81
2023/11/30 02:42:27;;;;;;;18.30;13.97;;;;;;;-3.83;100.00;98363.75;5111138;28;20736;-79
2023/11/30 02:44:54;;;;;;;16.90;13.13;;;;;;;-3.80;100.00;98355.56;5102581;28;20217;-79
2023/11/30 02:47:21;;;;;;;16.90;13.47;;;;;;;-3.75;100.00;98352.47;5112352;28;20223;-79
2023/11/30 02:49:47;;;;;;;16.23;12.80;;;;;;;-3.73;100.00;98338.22;5095124;28;20223;-79
2023/11/30 02:52:14;;;;;;;17.27;12.97;;;;;;;-3.70;100.00;98332.69;5098597;28;20211;-80
2023/11/30 02:54:41;;;;;;;15.13;12.37;;;;;;;-3.65;100.00;98321.72;5103713;28;20265;-81
2023/11/30 02:57:10;;;;;;;18.57;13.17;;;;;;;-3.61;100.00;98312.56;5105095;28;20195;-80
2023/11/30 02:59:41;;;;;;;17.67;13.60;;;;;;;-3.62;100.00;98310.94;5109104;28;20302;-79
2023/11/30 03:02:14;;;;;;;17.23;13.03;;;;;;;-3.61;100.00;98310.78;5103342;28;20192;-78
2023/11/30 03:04:58;;;;;;;15.87;12.50;;;;;;;-3.59;100.00;98308.78;5097720;28;20621;-81
2023/11/30 03:07:25;;;;;;;16.83;13.10;;;;;;;-3.59;100.00;98305.34;5106352;28;20198;-78
2023/11/30 03:09:51;;;;;;;16.67;12.93;;;;;;;-3.56;100.00;98310.28;5102455;28;20244;-79
2023/11/30 03:12:24;;;;;;;15.13;12.17;;;;;;;-3.53;100.00;98301.28;5100748;28;20253;-81
2023/11/30 03:14:53;;;;;;;15.77;12.17;;;;;;;-3.51;100.00;98289.69;5099083;28;20203;-79
2023/11/30 03:17:23;;;;;;;15.23;12.60;;;;;;;-3.48;100.00;98289.34;5104192;28;20209;-83
2023/11/30 03:19:50;;;;;;;16.13;11.97;;;;;;;-3.45;100.00;98288.22;5100944;28;20214;-82
2023/11/30 03:22:19;;;;;;;15.60;12.07;;;;;;;-3.43;100.00;98281.81;5099738;28;20198;-79
2023/11/30 03:24:47;;;;;;;16.10;11.70;;;;;;;-3.42;100.00;98278.22;5093621;28;20208;-78
2023/11/30 03:27:14;;;;;;;15.67;12.03;;;;;;;-3.42;100.00;98280.84;5102308;28;20184;-82
2023/11/30 03:29:42;;;;;;;14.57;11.87;;;;;;;-3.38;100.00;98290.00;5078144;28;20209;-78
2023/11/30 03:32:09;;;;;;;15.27;12.60;;;;;;;-3.35;100.00;98288.84;5105197;28;20200;-80
2023/11/30 03:34:39;;;;;;;13.93;11.33;;;;;;;-3.29;100.00;98296.03;5098087;28;20760;-80
2023/11/30 03:37:06;;;;;;;15.00;11.43;;;;;;;-3.30;100.00;98294.41;5089784;28;20197;-79
2023/11/30 03:39:33;;;;;;;14.87;11.50;;;;;;;-3.28;100.00;98289.84;5090919;28;20199;-79
2023/11/30 03:41:59;;;;;;;14.57;11.93;;;;;;;-3.27;100.00;98292.28;5086527;28;20216;-81
2023/11/30 03:44:28;;;;;;;15.90;12.40;;;;;;;-3.28;100.00;98292.44;5101246;28;20323;-79
2023/11/30 03:46:55;;;;;;;14.40;11.33;;;;;;;-3.33;100.00;98286.88;5106727;28;20193;-80
2023/11/30 03:49:21;;;;;;;14.47;10.93;;;;;;;-3.34;100.00;98290.47;5107591;28;20230;-79
2023/11/30 03:51:49;;;;;;;12.83;10.30;;;;;;;-3.31;100.00;98277.06;5106065;28;20195;-79
2023/11/30 03:54:15;;;;;;;13.50;10.83;;;;;;;-3.30;100.00;98273.44;5102924;28;20227;-80
2023/11/30 03:56:46;;;;;;;15.00;10.43;;;;;;;-3.27;100.00;98265.28;5103695;28;20195;-78
2023/11/30 03:59:17;;;;;;;10.80;9.03;;;;;;;-3.25;100.00;98263.31;5089506;28;20201;-78
2023/11/30 04:01:44;;;;;;;11.53;8.87;;;;;;;-3.29;100.00;98257.56;5095178;28;20212;-80
2023/11/30 04:04:11;;;;;;;10.43;8.50;;;;;;;-3.31;100.00;98253.50;5098802;28;20710;-82
2023/11/30 04:06:38;;;;;;;10.47;8.63;;;;;;;-3.37;100.00;98252.34;5093744;28;20633;-79
2023/11/30 04:09:06;;;;;;;10.90;7.97;;;;;;;-3.41;100.00;98243.19;5086643;28;20189;-81
2023/11/30 04:11:34;;;;;;;9.93;7.53;;;;;;;-3.43;100.00;98241.72;5091318;28;20233;-79
2023/11/30 04:14:07;;;;;;;9.27;6.53;;;;;;;-3.43;100.00;98244.34;5061275;28;20252;-79
2023/11/30 04:16:34;;;;;;;7.90;6.43;;;;;;;-3.48;100.00;98242.22;5082423;28;20236;-80
2023/11/30 04:19:08;;;;;;;9.23;6.90;;;;;;;-3.53;100.00;98239.25;5093450;28;20204;-78
2023/11/30 04:21:36;;;;;;;8.30;5.97;;;;;;;-3.52;100.00;98227.81;5093264;28;20215;-80
2023/11/30 04:24:12;;;;;;;8.27;5.73;;;;;;;-3.57;100.00;98222.25;5113134;28;20188;-80
2023/11/30 04:26:38;;;;;;;7.33;5.70;;;;;;;-3.60;100.00;98222.59;5104651;28;20186;-80
2023/11/30 04:29:06;;;;;;;6.90;5.87;;;;;;;-3.66;100.00;98215.38;5106362;28;20200;-79
2023/11/30 04:31:35;;;;;;;6.77;6.07;;;;;;;-3.66;100.00;98229.28;5110914;28;20191;-82
2023/11/30 04:34:03;;;;;;;6.13;5.30;;;;;;;-3.68;100.00;98226.00;5113618;28;20276;-80
2023/11/30 04:36:30;;;;;;;8.73;5.73;;;;;;;-3.65;100.00;98230.09;5100047;28;20750;-80
2023/11/30 04:38:57;;;;;;;8.47;6.00;;;;;;;-3.69;100.00;98221.78;5111837;28;20207;-79
2023/11/30 04:41:26;;;;;;;7.03;5.67;;;;;;;-3.67;100.00;98222.41;5113357;28;20187;-81
2023/11/30 04:43:53;;;;;;;8.20;6.10;;;;;;;-3.70;100.00;98222.75;5111821;28;20205;-80
2023/11/30 04:46:20;;;;;;;7.73;6.37;;;;;;;-3.70;100.00;98221.94;5113206;28;20667;-80
2023/11/30 04:48:50;;;;;;;8.50;6.27;;;;;;;-3.71;100.00;98222.91;5102062;28;20299;-80
2023/11/30 04:51:17;;;;;;;8.27;6.90;;;;;;;-3.70;100.00;98224.53;5049194;28;1803602;-79
2023/11/30 04:53:44;;;;;;;7.40;6.60;;;;;;;-3.74;100.00;98224.06;5112747;28;20238;-78
2023/11/30 04:56:11;;;;;;;9.90;7.27;;;;;;;-3.72;100.00;98229.13;5105736;28;20227;-80
2023/11/30 04:58:38;;;;;;;10.07;7.17;;;;;;;-3.75;100.00;98224.22;5094955;28;20661;-80
2023/11/30 05:01:07;;;;;;;10.30;7.97;;;;;;;-3.78;100.00;98229.78;5113403;28;20227;-80
2023/11/30 05:03:35;;;;;;;9.93;6.90;;;;;;;-3.81;100.00;98233.53;5098454;28;20215;-80
2023/11/30 05:06:05;;;;;;;9.60;7.43;;;;;;;-3.84;100.00;98231.25;5089772;28;20290;-80
2023/11/30 05:08:38;;;;;;;10.57;7.87;;;;;;;-3.89;100.00;98215.22;5102669;28;20214;-80
2023/11/30 05:11:05;;;;;;;11.87;8.63;;;;;;;-3.90;100.00;98225.84;5102334;28;20192;-79
2023/11/30 05:13:32;;;;;;;10.90;9.03;;;;;;;-3.90;100.00;98233.69;5093159;28;20722;-79
2023/11/30 05:15:59;;;;;;;11.13;8.73;;;;;;;-3.87;100.00;98247.25;5093478;28;20200;-82
2023/11/30 05:18:26;;;;;;;10.87;8.93;;;;;;;-3.85;100.00;98249.72;5095724;28;20192;-81
2023/11/30 05:20:53;;;;;;;11.67;9.50;;;;;;;-3.85;100.00;98247.09;5096718;28;20202;-81
2023/11/30 05:23:20;;;;;;;11.63;9.10;;;;;;;-3.83;100.00;98238.13;5096160;28;20554;-80
2023/11/30 05:26:10;;;;;;;11.07;9.07;;;;;;;-3.83;100.00;98234.69;5094262;28;20211;-80
2023/11/30 05:28:40;;;;;;;15.70;11.50;;;;;;;-3.81;100.00;98241.38;5101778;28;20659;-80
2023/11/30 05:31:10;;;;;;;15.00;11.83;;;;;;;-3.81;100.00;98232.72;5100775;28;20211;-80
2023/11/30 05:33:47;;;;;;;14.87;12.03;;;;;;;-3.84;100.00;98228.63;5107183;28;20211;-80
2023/11/30 05:36:14;;;;;;;15.20;11.07;;;;;;;-3.84;100.00;98238.28;5112249;28;20670;-78
2023/11/30 05:38:41;;;;;;;16.00;11.47;;;;;;;-3.85;100.00;98232.22;5112977;28;20194;-82
2023/11/30 05:41:09;;;;;;;15.00;11.60;;;;;;;-3.79;100.00;98243.84;5113459;28;20606;-77
2023/11/30 05:43:36;;;;;;;14.30;11.67;;;;;;;-3.71;100.00;98246.47;5095355;28;20279;-79
2023/11/30 05:46:06;;;;;;;14.60;11.33;;;;;;;-3.72;100.00;98256.09;5094743;28;20259;-78
2023/11/30 05:48:33;;;;;;;16.00;11.90;;;;;;;-3.71;100.00;98239.44;5094317;28;20188;-79
2023/11/30 05:51:01;;;;;;;14.10;10.97;;;;;;;-3.67;100.00;98239.91;5100817;28;20606;-80
2023/11/30 05:53:28;;;;;;;15.50;12.20;;;;;;;-3.65;100.00;98251.06;5094113;28;20660;-78
2023/11/30 05:55:54;;;;;;;15.80;11.70;;;;;;;-3.62;100.00;98259.41;5096928;28;20231;-79
2023/11/30 05:58:24;;;;;;;17.77;12.20;;;;;;;-3.60;100.00;98261.84;5094009;28;21153;-79
2023/11/30 06:00:50;;;;;;;16.13;12.87;;;;;;;-3.56;100.00;98250.06;5102796;28;20245;-81
2023/11/30 06:03:17;;;;;;;16.37;12.63;;;;;;;-3.55;100.00;98228.16;5103155;28;20592;-79
2023/11/30 06:05:44;;;;;;;17.27;13.23;;;;;;;-3.52;100.00;98232.22;5109657;28;20215;-79
2023/11/30 06:08:11;;;;;;;16.73;13.00;;;;;;;-3.52;100.00;98240.09;5103968;28;20187;-82
2023/11/30 06:10:38;;;;;;;15.27;12.37;;;;;;;-3.50;100.00;98259.06;5108808;28;20196;-79
2023/11/30 06:13:07;;;;;;;16.60;13.07;;;;;;;-3.50;100.00;98251.22;5100321;28;20188;-79
2023/11/30 06:15:37;;;;;;;18.10;12.47;;;;;;;-3.48;100.00;98251.84;5108098;28;20215;-79
2023/11/30 06:18:04;;;;;;;16.43;12.57;;;;;;;-3.46;100.00;98271.69;5102739;28;20198;-80
2023/11/30 06:20:33;;;;;;;17.03;13.33;;;;;;;-3.43;100.00;98275.75;5078498;28;20199;-80
2023/11/30 06:23:03;;;;;;;15.83;12.90;;;;;;;-3.38;100.00;98260.38;5104997;28;20188;-81
2023/11/30 06:25:29;;;;;;;16.70;13.10;;;;;;;-3.35;100.00;98263.47;5110180;28;20191;-81
2023/11/30 06:27:56;;;;;;;15.70;12.00;;;;;;;-3.35;100.00;98265.25;5109868;28;20248;-80
2023/11/30 06:30:23;;;;;;;26.03;19.93;;;;;;;-3.32;100.00;98262.34;5111630;28;20195;-82
2023/11/30 06:32:56;;;;;;;27.90;20.60;;;;;;;-3.31;100.00;98267.38;5104389;28;20188;-81
2023/11/30 06:35:24;;;;;;;31.73;23.70;;;;;;;-3.25;100.00;98276.41;5085142;28;20224;-79
2023/11/30 06:37:52;;;;;;;25.23;18.60;;;;;;;-3.24;100.00;98264.94;5103592;28;20208;-80
2023/11/30 06:40:20;;;;;;;27.83;20.27;;;;;;;-3.19;100.00;98267.88;5107381;28;20203;-80
2023/11/30 06:42:48;;;;;;;26.73;19.53;;;;;;;-3.17;100.00;98255.41;5100023;28;20211;-80
2023/11/30 06:45:17;;;;;;;27.40;18.13;;;;;;;-3.16;100.00;98243.97;5102102;28;20659;-78
2023/11/30 06:47:44;;;;;;;20.57;16.20;;;;;;;-3.16;100.00;98251.81;5076626;28;20301;-80
2023/11/30 06:50:22;;;;;;;19.43;14.97;;;;;;;-3.12;100.00;98253.13;5070636;28;20235;-80
2023/11/30 06:52:50;;;;;;;19.90;15.10;;;;;;;-3.09;100.00;98257.22;5071370;28;20192;-79
2023/11/30 06:55:19;;;;;;;18.70;14.27;;;;;;;-3.04;100.00;98262.78;5079440;28;20293;-79
2023/11/30 06:57:48;;;;;;;17.80;14.20;;;;;;;-3.04;100.00;98261.00;5073199;28;20496;-80
2023/11/30 07:00:15;;;;;;;17.10;13.43;;;;;;;-2.99;100.00;98261.31;5073048;28;20195;-79
2023/11/30 07:02:45;;;;;;;17.87;14.00;;;;;;;-2.95;100.00;98262.59;5069982;28;20307;-79
2023/11/30 07:05:11;;;;;;;16.80;13.27;;;;;;;-2.92;100.00;98253.56;5055154;28;20199;-80
2023/11/30 07:07:41;;;;;;;18.40;13.47;;;;;;;-2.88;100.00;98260.94;5068282;28;20226;-81
2023/11/30 07:10:12;;;;;;;17.70;13.83;;;;;;;-2.82;100.00;98262.06;5070632;28;20293;-78
2023/11/30 07:12:42;;;;;;;15.37;13.27;;;;;;;-2.80;100.00;98260.13;5073404;28;20827;-81
2023/11/30 07:15:12;;;;;;;17.17;14.03;;;;;;;-2.77;100.00;98265.84;5084794;28;20292;-80
2023/11/30 07:17:40;;;;;;;18.93;14.07;;;;;;;-2.68;100.00;98274.50;5073016;28;20200;-80
2023/11/30 07:20:11;;;;;;;16.70;14.17;;;;;;;-2.66;100.00;98275.16;5076912;28;20285;-79
2023/11/30 07:22:43;;;;;;;20.00;14.40;;;;;;;-2.63;100.00;98281.84;5079459;28;20306;-78
2023/11/30 07:25:12;;;;;;;18.17;13.63;;;;;;;-2.63;100.00;98274.81;5077009;28;20191;-81
2023/11/30 07:27:41;;;;;;;17.50;14.10;;;;;;;-2.57;100.00;98268.06;5068477;28;20200;-78
2023/11/30 07:30:09;;;;;;;17.90;14.57;;;;;;;-2.52;100.00;98266.53;5074115;28;20222;-78
2023/11/30 07:32:36;;;;;;;17.07;14.07;;;;;;;-2.48;100.00;98249.50;5074885;28;20739;-80
2023/11/30 07:35:06;;;;;;;18.43;14.33;;;;;;;-2.45;100.00;98259.66;5080221;28;20276;-80
2023/11/30 07:37:34;;;;;;;19.40;15.97;;;;;;;-2.46;100.00;98258.00;5071234;28;20470;-81
2023/11/30 07:40:04;;;;;;;19.53;15.87;;;;;;;-2.47;100.00;98251.13;5076332;28;20200;-80
2023/11/30 07:42:32;;;;;;;20.07;16.27;;;;;;;-2.40;100.00;98264.38;5080141;28;20183;-81
2023/11/30 07:45:06;;;;;;;20.00;14.90;;;;;;;-2.28;100.00;98273.50;5073661;28;20712;-79
2023/11/30 07:47:35;;;;;;;18.97;14.57;;;;;;;-2.18;100.00;98266.25;5071828;28;20704;-79
2023/11/30 07:50:01;;;;;;;17.03;13.80;;;;;;;-2.09;100.00;98269.63;5081675;28;20228;-81
2023/11/30 07:52:28;;;;;;;18.80;15.30;;;;;;;-2.02;100.00;98245.16;5047754;28;20708;-79
2023/11/30 07:54:56;;;;;;;17.10;13.67;;;;;;;-1.97;100.00;98242.03;5072786;28;20213;-80
2023/11/30 07:57:23;;;;;;;18.90;13.97;;;;;;;-1.92;100.00;98250.19;5080761;28;20231;-80
2023/11/30 07:59:50;;;;;;;16.73;13.97;;;;;;;-1.85;100.00;98248.50;5079094;28;20300;-78
2023/11/30 08:02:17;;;;;;;17.43;14.17;;;;;;;-1.75;100.00;98271.91;5074376;28;20192;-80
2023/11/30 08:04:45;;;;;;;21.33;15.80;;;;;;;-1.71;100.00;98268.75;5077901;28;20203;-79
2023/11/30 08:07:20;;;;;;;21.33;15.80;;;;;;;-1.66;100.00;98250.66;5040991;28;20221;-79
2023/11/30 08:09:48;;;;;;;20.60;15.93;;;;;;;-1.60;100.00;98259.66;5065800;28;20192;-80
2023/11/30 08:12:18;;;;;;;18.30;15.13;;;;;;;-1.49;100.00;98251.34;5054591;28;20219;-79
2023/11/30 08:14:48;;;;;;;19.43;15.00;;;;;;;-1.48;100.00;98237.22;5065904;28;20215;-80
2023/11/30 08:17:15;;;;;;;18.33;14.80;;;;;;;-1.41;100.00;98225.03;5076006;28;20272;-79
2023/11/30 08:19:42;;;;;;;18.10;14.23;;;;;;;-1.59;100.00;98246.34;5073334;28;20187;-78
2023/11/30 08:22:09;;;;;;;18.67;15.13;;;;;;;-1.47;100.00;98246.72;5058772;28;20196;-79
2023/11/30 08:24:41;;;;;;;17.80;14.70;;;;;;;-1.63;100.00;98225.88;5089052;27;20948;-79
2023/11/30 08:27:08;;;;;;;18.93;15.40;;;;;;;-1.63;100.00;98239.78;5062935;28;20188;-81
2023/11/30 08:29:36;;;;;;;18.60;14.97;;;;;;;-1.45;100.00;98245.59;5055149;28;20192;-80
2023/11/30 08:32:04;;;;;;;19.40;15.37;;;;;;;-1.46;100.00;98266.75;5064914;28;20208;-79
2023/11/30 08:34:33;;;;;;;17.93;14.07;;;;;;;-1.27;100.00;98258.41;5071397;28;20222;-78
2023/11/30 08:37:00;;;;;;;18.47;14.43;;;;;;;-1.24;100.00;98252.78;5069034;28;20197;-79
2023/11/30 08:39:30;;;;;;;18.47;14.37;;;;;;;-0.97;100.00;98256.63;5058448;28;20196;-80
2023/11/30 08:41:57;;;;;;;18.27;14.30;;;;;;;-0.87;100.00;98244.03;5055891;28;20761;-78
2023/11/30 08:44:27;;;;;;;24.53;19.57;;;;;;;-0.88;100.00;98261.59;5037795;28;20205;-80
2023/11/30 08:46:54;;;;;;;91.57;48.40;;;;;;;-0.72;100.00;98265.88;5037766;28;20969;-78
2023/11/30 08:49:22;;;;;;;50.47;30.00;;;;;;;-0.59;100.00;98273.13;5091151;28;20461;-79
2023/11/30 08:51:48;;;;;;;32.33;21.30;;;;;;;-0.55;100.00;98279.66;5061923;28;20235;-78
2023/11/30 08:54:20;;;;;;;21.63;16.53;;;;;;;-0.46;100.00;98274.13;5068367;28;20231;-80
2023/11/30 08:56:47;;;;;;;20.73;16.07;;;;;;;-0.42;100.00;98266.69;5057647;28;20730;-79
2023/11/30 08:59:15;;;;;;;20.03;14.63;;;;;;;-0.27;100.00;98258.78;5065323;28;20306;-79
2023/11/30 09:01:44;;;;;;;19.03;15.37;;;;;;;-0.08;100.00;98256.38;5054426;28;20204;-78
2023/11/30 09:04:13;;;;;;;19.43;15.43;;;;;;;0.09;100.00;98261.44;5075356;28;20287;-80
2023/11/30 09:06:40;;;;;;;16.47;13.43;;;;;;;0.22;100.00;98251.03;5070278;28;20270;-80
2023/11/30 09:09:07;;;;;;;15.43;13.07;;;;;;;0.26;100.00;98247.84;5075273;28;20735;-83
2023/11/30 09:11:36;;;;;;;18.13;13.87;;;;;;;0.37;100.00;98252.59;5073606;28;20477;-82
2023/11/30 09:14:02;;;;;;;17.70;13.83;;;;;;;0.31;100.00;98239.38;5080633;28;20223;-83
2023/11/30 09:16:32;;;;;;;17.00;13.87;;;;;;;0.29;100.00;98230.81;5073333;28;20220;-80
2023/11/30 09:18:59;;;;;;;17.63;14.17;;;;;;;0.13;100.00;98220.56;5100756;28;20225;-81
2023/11/30 09:21:26;;;;;;;17.73;13.90;;;;;;;0.14;100.00;98217.72;5105838;28;20184;-81
2023/11/30 09:23:58;;;;;;;18.97;14.30;;;;;;;0.02;100.00;98195.53;5093469;28;20199;-81
2023/11/30 09:26:25;;;;;;;17.83;14.20;;;;;;;0.07;100.00;98185.25;5102460;28;20192;-81
2023/11/30 09:28:52;;;;;;;18.70;14.87;;;;;;;0.07;100.00;98181.78;5112439;28;20196;-81
2023/11/30 09:31:20;;;;;;;17.57;14.10;;;;;;;-0.21;100.00;98182.53;5107411;28;20253;-79
2023/11/30 09:33:53;;;;;;;19.77;16.80;;;;;;;-0.23;100.00;98178.44;5111467;28;20271;-81
2023/11/30 09:36:20;;;;;;;35.67;21.93;;;;;;;-0.24;100.00;98164.50;5082980;28;20220;-80
2023/11/30 09:38:47;;;;;;;16.17;14.20;;;;;;;-0.28;100.00;98160.56;5104322;28;20184;-81
2023/11/30 09:41:16;;;;;;;17.13;13.30;;;;;;;-0.51;100.00;98149.38;5089923;28;20656;-79
2023/11/30 09:43:45;;;;;;;15.27;12.73;;;;;;;-0.32;100.00;98164.59;5081635;28;20211;-80
2023/11/30 09:46:13;;;;;;;22.77;18.30;;;;;;;-0.11;100.00;98151.47;5086079;28;20196;-79
2023/11/30 09:48:47;;;;;;;22.27;15.70;;;;;;;0.02;100.00;98147.31;5103666;28;20204;-80
2023/11/30 09:51:20;;;;;;;20.67;14.97;;;;;;;-0.02;100.00;98152.16;5085156;28;20240;-80
2023/11/30 09:53:47;;;;;;;17.80;14.03;;;;;;;-0.07;100.00;98141.34;5092461;28;20192;-81
2023/11/30 09:56:18;;;;;;;15.37;12.70;;;;;;;-0.33;100.00;98139.28;5100203;28;20280;-81
2023/11/30 09:58:47;;;;;;;17.40;14.00;;;;;;;-0.31;100.00;98131.19;5093579;28;20218;-81
2023/11/30 10:01:17;;;;;;;17.00;14.33;;;;;;;-0.07;100.00;98129.00;5094319;28;20192;-83
2023/11/30 10:03:44;;;;;;;18.57;13.43;;;;;;;-0.30;100.00;98141.53;5101606;28;20207;-80
2023/11/30 10:06:12;;;;;;;16.43;13.63;;;;;;;-0.15;100.00;98147.56;5090586;28;20251;-79
2023/11/30 10:08:42;;;;;;;15.47;12.53;;;;;;;0.17;100.00;98146.25;5090231;28;20200;-80
2023/11/30 10:11:10;;;;;;;17.07;13.70;;;;;;;0.37;100.00;98134.03;5088914;28;20311;-81
2023/11/30 10:13:36;;;;;;;18.67;13.50;;;;;;;0.52;100.00;98138.41;5090298;28;20200;-81
2023/11/30 10:16:06;;;;;;;15.33;12.93;;;;;;;0.71;100.00;98143.81;5075559;28;20234;-81
2023/11/30 10:18:34;;;;;;;14.93;12.70;;;;;;;0.92;100.00;98148.22;5083125;28;20253;-80
2023/11/30 10:21:01;;;;;;;17.07;13.13;;;;;;;1.06;100.00;98143.81;5092886;28;20200;-80
2023/11/30 10:23:29;;;;;;;16.50;13.17;;;;;;;1.13;100.00;98150.75;5083308;28;20298;-81
2023/11/30 10:25:57;;;;;;;14.37;12.63;;;;;;;1.20;100.00;98142.88;5094752;28;20276;-80
2023/11/30 10:28:23;;;;;;;15.60;12.93;;;;;;;1.29;100.00;98133.78;5100438;28;20186;-81
2023/11/30 10:30:58;;;;;;;16.80;15.00;;;;;;;1.46;100.00;98123.69;5078638;28;20192;-78
2023/11/30 10:33:28;;;;;;;16.30;12.93;;;;;;;1.65;100.00;98126.38;5096510;28;20190;-80
2023/11/30 10:36:01;;;;;;;13.40;11.83;;;;;;;1.80;100.00;98120.13;5090835;28;20208;-81
2023/11/30 10:38:31;;;;;;;14.13;11.70;;;;;;;1.83;100.00;98111.78;5093193;28;20291;-79
2023/11/30 10:41:12;;;;;;;13.87;11.83;;;;;;;1.92;100.00;98110.59;5089138;28;20180;-81
2023/11/30 10:43:47;;;;;;;13.97;11.83;;;;;;;1.93;100.00;98102.47;5099466;28;20215;-80
2023/11/30 10:46:14;;;;;;;13.90;11.80;;;;;;;1.95;100.00;98099.63;5089622;28;21082;-81
2023/11/30 10:48:44;;;;;;;14.97;12.17;;;;;;;1.99;100.00;98103.50;5077750;28;20188;-80
2023/11/30 10:51:14;;;;;;;13.33;11.80;;;;;;;1.66;100.00;98100.81;5085093;28;20737;-79
2023/11/30 10:54:20;;;;;;;13.03;11.17;;;;;;;1.75;100.00;98094.31;5079161;28;20209;-81
2023/11/30 10:56:50;;;;;;;16.67;11.80;;;;;;;1.77;100.00;98085.19;5005061;28;20241;-79
2023/11/30 10:59:17;;;;;;;13.67;12.27;;;;;;;1.77;100.00;98079.91;5067427;28;20213;-79
2023/11/30 11:01:47;;;;;;;13.03;11.63;;;;;;;1.95;100.00;98094.34;5092243;28;20188;-79
2023/11/30 11:04:15;;;;;;;12.77;11.47;;;;;;;1.80;100.00;98088.44;5103265;28;20191;-79
2023/11/30 11:06:42;;;;;;;14.80;11.83;;;;;;;1.97;100.00;98077.28;5098135;28;20212;-80
2023/11/30 11:09:11;;;;;;;15.30;12.37;;;;;;;2.08;100.00;98067.94;5064633;28;20227;-81
2023/11/30 11:11:40;;;;;;;14.17;11.90;;;;;;;2.08;100.00;98052.91;5087358;28;20230;-80
2023/11/30 11:14:07;;;;;;;14.43;12.23;;;;;;;1.96;100.00;98051.88;5097273;28;20270;-81
2023/11/30 11:16:41;;;;;;;13.57;12.00;;;;;;;2.14;100.00;98072.41;5100224;28;20200;-81
2023/11/30 11:19:09;;;;;;;13.37;11.63;;;;;;;2.26;100.00;98068.13;5100714;28;20187;-79